Time;durP1;ratioP1;P1;durP2;ratioP2;P2;SDS_P1;SDS_P2;PMS_P1;PMS_P2;Temp;Humidity;BMP_temperature;BMP_pressure;BME280_temperature;BME280_humidity;BME280_pressure;Samples;Min_cycle;Max_cycle;Signal;HPM_P1;HPM_P2
2021/05/07 00:17:05;;;;;;;6.80;2.93;;;;;;;;;;13011890;22;20637;-82
2021/05/07 00:22:08;;;;;;;5.10;2.83;;;;;;;;;;13035382;22;20255;-84
2021/05/07 00:27:11;;;;;;;5.30;3.00;;;;;;;;;;13031171;22;20289;-84
2021/05/07 00:32:15;;;;;;;5.30;2.73;;;;;;;;;;13029714;22;20174;-83
2021/05/07 00:37:18;;;;;;;5.70;3.13;;;;;;;;;;13028540;22;20182;-82
2021/05/07 00:42:20;;;;;;;5.57;3.03;;;;;;;;;;13030560;22;20669;-83
2021/05/07 00:47:24;;;;;;;4.57;3.00;;;;;;;;;;13027567;22;20201;-83
2021/05/07 00:52:27;;;;;;;6.23;3.03;;;;;;;;;;13031676;22;20174;-82
2021/05/07 00:57:30;;;;;;;5.17;3.20;;;;;;;;;;13008132;22;20249;-83
2021/05/07 01:02:34;;;;;;;4.90;2.90;;;;;;;;;;13007027;22;20377;-84
2021/05/07 01:07:36;;;;;;;4.70;3.30;;;;;;;;;;13031419;22;20263;-82
2021/05/07 01:12:39;;;;;;;4.60;3.13;;;;;;;;;;13029839;22;20180;-83
2021/05/07 01:17:43;;;;;;;5.40;3.10;;;;;;;;;;13026630;22;20524;-83
2021/05/07 01:22:47;;;;;;;4.53;2.93;;;;;;;;;;13032058;22;20745;-82
2021/05/07 01:27:49;;;;;;;5.80;3.10;;;;;;;;;;13008812;22;20197;-83
2021/05/07 01:32:51;;;;;;;6.37;3.13;;;;;;;;;;13025980;22;20283;-83
2021/05/07 01:37:55;;;;;;;4.10;3.20;;;;;;;;;;13031019;22;20181;-83
2021/05/07 01:42:57;;;;;;;5.77;3.30;;;;;;;;;;13006321;22;20524;-83
2021/05/07 01:48:00;;;;;;;7.53;3.10;;;;;;;;;;13026868;22;20272;-83
2021/05/07 01:53:03;;;;;;;5.53;3.27;;;;;;;;;;13028450;22;20612;-83
2021/05/07 01:58:05;;;;;;;8.20;3.27;;;;;;;;;;13007975;22;20182;-83
2021/05/07 02:03:08;;;;;;;5.13;3.40;;;;;;;;;;13024316;22;20297;-82
2021/05/07 02:08:11;;;;;;;4.73;3.30;;;;;;;;;;13031147;22;20284;-82
2021/05/07 02:13:13;;;;;;;8.63;3.30;;;;;;;;;;13026629;22;20549;-84
2021/05/07 02:18:15;;;;;;;3.97;3.43;;;;;;;;;;13028242;22;20641;-83
2021/05/07 02:23:18;;;;;;;4.43;3.43;;;;;;;;;;13028652;22;20602;-84
2021/05/07 02:28:20;;;;;;;4.27;3.20;;;;;;;;;;13030654;22;20227;-84
2021/05/07 02:33:21;;;;;;;6.43;3.30;;;;;;;;;;13029518;22;20178;-84
2021/05/07 02:38:26;;;;;;;5.20;3.20;;;;;;;;;;13034035;22;20177;-84
2021/05/07 02:43:28;;;;;;;5.00;2.87;;;;;;;;;;13007955;22;20174;-85
2021/05/07 02:48:30;;;;;;;5.17;2.83;;;;;;;;;;13032513;22;20257;-84
2021/05/07 02:53:33;;;;;;;3.07;2.20;;;;;;;;;;13031227;22;20186;-83
2021/05/07 02:58:35;;;;;;;3.07;2.03;;;;;;;;;;13032758;22;20209;-83
2021/05/07 03:03:37;;;;;;;2.63;1.77;;;;;;;;;;13028759;22;20196;-82
2021/05/07 03:08:40;;;;;;;3.10;1.60;;;;;;;;;;13034906;22;20653;-83
2021/05/07 03:13:42;;;;;;;2.20;1.57;;;;;;;;;;13010565;22;20205;-83
2021/05/07 03:18:43;;;;;;;2.47;1.50;;;;;;;;;;13009858;22;20204;-83
2021/05/07 03:23:46;;;;;;;2.47;1.57;;;;;;;;;;13011317;22;20173;-82
2021/05/07 03:28:48;;;;;;;4.60;1.70;;;;;;;;;;13033522;22;20342;-82
2021/05/07 03:33:50;;;;;;;2.07;1.40;;;;;;;;;;13031107;22;20760;-83
2021/05/07 03:38:53;;;;;;;3.63;1.40;;;;;;;;;;13035155;22;20177;-83
2021/05/07 03:43:55;;;;;;;2.63;1.50;;;;;;;;;;13029768;22;20193;-83
2021/05/07 03:48:57;;;;;;;2.23;1.50;;;;;;;;;;13028882;22;20189;-83
2021/05/07 03:53:59;;;;;;;2.03;1.30;;;;;;;;;;13011822;22;20261;-82
2021/05/07 03:59:01;;;;;;;2.47;1.70;;;;;;;;;;13028499;22;20204;-83
2021/05/07 04:04:06;;;;;;;2.07;1.50;;;;;;;;;;13007137;22;20643;-83
2021/05/07 04:09:13;;;;;;;1.47;1.37;;;;;;;;;;13029589;22;20653;-83
2021/05/07 04:14:19;;;;;;;1.87;1.60;;;;;;;;;;13030827;22;20174;-82
2021/05/07 04:19:21;;;;;;;1.70;1.40;;;;;;;;;;13028361;22;20295;-82
2021/05/07 04:24:24;;;;;;;2.50;1.70;;;;;;;;;;13033345;22;20205;-84
2021/05/07 04:29:27;;;;;;;2.73;1.77;;;;;;;;;;13027640;22;20474;-82
2021/05/07 04:34:29;;;;;;;2.60;1.70;;;;;;;;;;13032075;22;20621;-82
2021/05/07 04:39:31;;;;;;;3.10;1.80;;;;;;;;;;13028751;22;20260;-82
2021/05/07 04:44:33;;;;;;;3.17;1.63;;;;;;;;;;13032452;22;20201;-86
2021/05/07 04:49:35;;;;;;;2.97;1.90;;;;;;;;;;13041680;22;20174;-81
2021/05/07 04:54:38;;;;;;;2.30;1.50;;;;;;;;;;13032241;22;20581;-82
2021/05/07 04:59:40;;;;;;;1.57;1.40;;;;;;;;;;13009503;22;20533;-84
2021/05/07 05:04:42;;;;;;;2.43;1.77;;;;;;;;;;13047833;22;20213;-90
2021/05/07 05:09:45;;;;;;;1.90;1.60;;;;;;;;;;13054945;22;20178;-90
2021/05/07 05:14:47;;;;;;;2.07;1.83;;;;;;;;;;13016889;22;20466;-89
2021/05/07 05:19:50;;;;;;;1.90;1.70;;;;;;;;;;13047393;22;20603;-92
2021/05/07 05:24:53;;;;;;;2.30;1.70;;;;;;;;;;13017935;22;20288;-85
2021/05/07 05:29:55;;;;;;;2.90;1.60;;;;;;;;;;13050721;22;20261;-85
2021/05/07 05:34:57;;;;;;;2.47;1.63;;;;;;;;;;13015217;22;20178;-84
2021/05/07 05:40:00;;;;;;;2.63;1.90;;;;;;;;;;13058732;22;20177;-93
2021/05/07 05:45:05;;;;;;;1.90;1.63;;;;;;;;;;13028539;22;20288;-81
2021/05/07 05:50:08;;;;;;;3.17;1.70;;;;;;;;;;13019332;22;20509;-86
2021/05/07 05:55:15;;;;;;;2.97;1.90;;;;;;;;;;13008533;22;20858;-85
2021/05/07 06:00:17;;;;;;;2.07;1.73;;;;;;;;;;13030979;22;20256;-85
2021/05/07 06:05:20;;;;;;;2.43;1.67;;;;;;;;;;13013981;22;20205;-83
2021/05/07 06:10:23;;;;;;;2.63;1.80;;;;;;;;;;13036596;22;20216;-84
2021/05/07 06:15:25;;;;;;;2.73;2.00;;;;;;;;;;13033164;22;20937;-84
2021/05/07 06:20:27;;;;;;;2.27;2.07;;;;;;;;;;13034341;22;20170;-84
2021/05/07 06:25:30;;;;;;;3.00;1.80;;;;;;;;;;13014219;22;20205;-83
2021/05/07 06:30:32;;;;;;;3.10;2.00;;;;;;;;;;13013355;22;20224;-83
2021/05/07 06:35:34;;;;;;;3.33;2.07;;;;;;;;;;13035258;22;20205;-83
2021/05/07 06:40:38;;;;;;;3.27;2.00;;;;;;;;;;13035427;22;20173;-82
2021/05/07 06:45:39;;;;;;;4.57;2.57;;;;;;;;;;13011066;22;20205;-85
2021/05/07 06:50:41;;;;;;;3.50;2.23;;;;;;;;;;13014023;22;20174;-83
2021/05/07 06:55:44;;;;;;;2.40;2.20;;;;;;;;;;13013675;22;20181;-83
2021/05/07 07:00:56;;;;;;;3.77;2.30;;;;;;;;;;13033960;22;20224;-83
2021/05/07 07:05:58;;;;;;;2.83;2.30;;;;;;;;;;13012970;22;20211;-83
2021/05/07 07:11:01;;;;;;;4.30;2.60;;;;;;;;;;13036058;22;20182;-83
2021/05/07 07:16:03;;;;;;;3.67;2.70;;;;;;;;;;13010878;22;20188;-83
2021/05/07 07:21:05;;;;;;;3.90;2.50;;;;;;;;;;13035474;22;20197;-83
2021/05/07 07:26:08;;;;;;;4.77;2.60;;;;;;;;;;13032648;22;20229;-84
2021/05/07 07:31:10;;;;;;;2.93;2.40;;;;;;;;;;13033245;22;20177;-83
2021/05/07 07:36:13;;;;;;;4.87;2.77;;;;;;;;;;13012567;22;20713;-83
2021/05/07 07:41:16;;;;;;;3.67;2.40;;;;;;;;;;13035427;22;20178;-83
2021/05/07 07:46:19;;;;;;;3.43;3.00;;;;;;;;;;13030851;22;20449;-84
2021/05/07 07:51:21;;;;;;;4.23;2.80;;;;;;;;;;13035205;22;20755;-84
2021/05/07 07:56:24;;;;;;;3.37;2.70;;;;;;;;;;13012348;22;20208;-83
2021/05/07 08:01:26;;;;;;;4.00;2.83;;;;;;;;;;13011216;22;20198;-85
2021/05/07 08:06:28;;;;;;;5.13;2.87;;;;;;;;;;13033351;22;20815;-84
2021/05/07 08:11:30;;;;;;;5.53;3.07;;;;;;;;;;13034461;22;20229;-84
2021/05/07 08:16:32;;;;;;;5.37;2.80;;;;;;;;;;13009009;22;20181;-82
2021/05/07 08:21:34;;;;;;;4.77;2.93;;;;;;;;;;13033029;22;20516;-84
2021/05/07 08:26:38;;;;;;;4.73;2.80;;;;;;;;;;13034333;22;20823;-84
2021/05/07 08:31:40;;;;;;;6.30;2.80;;;;;;;;;;13029472;22;20284;-83
2021/05/07 08:36:42;;;;;;;4.70;2.70;;;;;;;;;;13035103;22;20979;-85
2021/05/07 08:41:45;;;;;;;4.30;2.80;;;;;;;;;;13031936;22;21078;-84
2021/05/07 08:46:47;;;;;;;4.33;2.80;;;;;;;;;;13009959;22;20205;-85
2021/05/07 08:51:49;;;;;;;4.90;3.33;;;;;;;;;;13032433;22;20170;-83
2021/05/07 08:56:52;;;;;;;5.27;2.87;;;;;;;;;;13033746;22;20288;-85
2021/05/07 09:01:56;;;;;;;6.23;2.90;;;;;;;;;;13029613;22;20198;-83
2021/05/07 09:06:58;;;;;;;5.17;2.87;;;;;;;;;;13033770;22;20301;-83
2021/05/07 09:12:01;;;;;;;5.40;2.77;;;;;;;;;;13031188;22;20210;-83
2021/05/07 09:17:04;;;;;;;5.00;3.13;;;;;;;;;;13031303;22;20178;-83
2021/05/07 09:22:06;;;;;;;6.03;2.67;;;;;;;;;;13033961;22;20628;-83
2021/05/07 09:27:20;;;;;;;4.13;2.80;;;;;;;;;;13032804;22;20293;-82
2021/05/07 09:32:32;;;;;;;4.60;3.10;;;;;;;;;;13032056;22;20176;-83
2021/05/07 09:37:35;;;;;;;4.87;3.00;;;;;;;;;;13036884;22;20179;-83
2021/05/07 09:42:38;;;;;;;4.57;2.80;;;;;;;;;;13012657;22;20638;-83
2021/05/07 09:47:39;;;;;;;4.77;2.50;;;;;;;;;;13032061;22;20202;-81
2021/05/07 09:52:41;;;;;;;5.03;2.40;;;;;;;;;;13011195;22;20253;-83
2021/05/07 09:57:44;;;;;;;4.90;2.47;;;;;;;;;;13032812;22;20205;-81
2021/05/07 10:02:49;;;;;;;4.07;2.27;;;;;;;;;;13028407;22;20197;-81
2021/05/07 10:07:51;;;;;;;4.93;2.10;;;;;;;;;;13032708;22;20215;-83
2021/05/07 10:12:57;;;;;;;4.40;2.37;;;;;;;;;;13008706;22;20648;-82
2021/05/07 10:17:59;;;;;;;4.80;2.60;;;;;;;;;;13031746;22;20246;-83
2021/05/07 10:23:12;;;;;;;5.17;2.70;;;;;;;;;;13010489;22;20178;-83
2021/05/07 10:28:16;;;;;;;4.63;2.50;;;;;;;;;;13031165;22;20446;-81
2021/05/07 10:33:18;;;;;;;6.23;3.23;;;;;;;;;;13029521;22;20542;-83
2021/05/07 10:38:21;;;;;;;5.93;2.47;;;;;;;;;;13032686;22;20265;-83
2021/05/07 10:43:34;;;;;;;4.80;2.80;;;;;;;;;;13008930;22;20180;-83
2021/05/07 10:48:36;;;;;;;5.60;2.50;;;;;;;;;;13032106;22;20297;-84
2021/05/07 10:53:39;;;;;;;3.67;2.60;;;;;;;;;;13033757;22;20262;-82
2021/05/07 10:58:42;;;;;;;6.83;2.50;;;;;;;;;;13014683;22;20556;-83
2021/05/07 11:03:44;;;;;;;4.53;2.30;;;;;;;;;;13030754;22;20193;-82
2021/05/07 11:08:46;;;;;;;3.70;2.30;;;;;;;;;;13014436;22;20539;-81
2021/05/07 11:13:49;;;;;;;5.77;2.60;;;;;;;;;;13012561;22;20174;-83
2021/05/07 11:18:51;;;;;;;3.90;2.53;;;;;;;;;;13011488;22;20537;-82
2021/05/07 11:23:53;;;;;;;3.60;2.50;;;;;;;;;;13032101;22;20850;-82
2021/05/07 11:28:55;;;;;;;5.80;2.70;;;;;;;;;;13014731;22;20201;-82
2021/05/07 11:33:57;;;;;;;4.23;2.40;;;;;;;;;;13032599;22;20668;-84
2021/05/07 11:38:59;;;;;;;3.90;2.50;;;;;;;;;;13011840;22;20232;-82
2021/05/07 11:44:07;;;;;;;4.70;2.47;;;;;;;;;;13012853;22;20178;-82
2021/05/07 11:49:09;;;;;;;3.70;2.50;;;;;;;;;;13032119;22;20249;-82
2021/05/07 11:54:11;;;;;;;4.90;2.77;;;;;;;;;;13033005;22;20181;-85
2021/05/07 11:59:20;;;;;;;5.63;2.90;;;;;;;;;;13031818;22;20185;-82
2021/05/07 12:04:25;;;;;;;4.40;2.40;;;;;;;;;;13031985;22;20518;-82
2021/05/07 12:09:28;;;;;;;3.60;2.73;;;;;;;;;;13030721;22;20205;-83
2021/05/07 12:14:36;;;;;;;6.50;2.77;;;;;;;;;;13008619;22;20177;-83
2021/05/07 12:19:38;;;;;;;4.97;2.87;;;;;;;;;;13031995;22;20671;-82
2021/05/07 12:24:40;;;;;;;3.87;2.77;;;;;;;;;;13032533;22;20587;-83
2021/05/07 12:29:43;;;;;;;4.07;2.60;;;;;;;;;;13029689;22;20223;-81
2021/05/07 12:34:53;;;;;;;7.27;3.50;;;;;;;;;;13033727;22;20177;-82
2021/05/07 12:39:55;;;;;;;6.93;3.23;;;;;;;;;;13031050;22;20180;-82
2021/05/07 12:44:58;;;;;;;4.80;3.20;;;;;;;;;;13009684;22;20178;-83
2021/05/07 12:50:00;;;;;;;4.60;2.60;;;;;;;;;;13008250;22;20174;-82
2021/05/07 12:55:04;;;;;;;6.10;2.93;;;;;;;;;;13029627;22;20204;-83
2021/05/07 13:00:10;;;;;;;4.53;2.70;;;;;;;;;;13030260;22;20603;-82
2021/05/07 13:05:12;;;;;;;4.90;2.40;;;;;;;;;;13007380;22;20278;-83
2021/05/07 13:10:14;;;;;;;5.47;2.80;;;;;;;;;;13030333;22;20208;-82
2021/05/07 13:15:18;;;;;;;6.03;3.00;;;;;;;;;;13027437;22;20174;-83
2021/05/07 13:20:21;;;;;;;4.50;2.87;;;;;;;;;;13030626;22;20181;-83
2021/05/07 13:25:23;;;;;;;4.27;2.60;;;;;;;;;;13007286;22;20211;-81
2021/05/07 13:30:27;;;;;;;6.60;2.97;;;;;;;;;;13028520;22;20385;-82
2021/05/07 13:35:29;;;;;;;4.27;2.53;;;;;;;;;;13030276;22;20292;-83
2021/05/07 13:40:31;;;;;;;3.90;2.67;;;;;;;;;;13032217;22;20166;-82
2021/05/07 13:45:36;;;;;;;7.60;3.00;;;;;;;;;;13025073;22;20668;-84
2021/05/07 13:50:38;;;;;;;5.57;3.17;;;;;;;;;;13010604;22;20674;-84
2021/05/07 13:55:40;;;;;;;5.87;3.37;;;;;;;;;;13009592;22;20174;-83
2021/05/07 14:00:43;;;;;;;6.27;3.33;;;;;;;;;;13029241;22;20174;-84
2021/05/07 14:05:46;;;;;;;6.33;3.37;;;;;;;;;;13031032;22;20216;-81
2021/05/07 14:10:48;;;;;;;5.30;3.20;;;;;;;;;;13033668;22;20212;-83
2021/05/07 14:15:51;;;;;;;4.10;2.90;;;;;;;;;;13026079;22;20297;-83
2021/05/07 14:20:56;;;;;;;4.07;2.83;;;;;;;;;;13011434;22;20245;-83
2021/05/07 14:25:59;;;;;;;5.73;3.40;;;;;;;;;;13015753;22;20682;-83
2021/05/07 14:31:02;;;;;;;5.67;3.33;;;;;;;;;;13013349;22;20193;-84
2021/05/07 14:36:04;;;;;;;5.10;3.30;;;;;;;;;;13036715;22;20273;-84
2021/05/07 14:41:06;;;;;;;4.93;3.53;;;;;;;;;;13034006;22;20227;-83
2021/05/07 14:46:09;;;;;;;6.53;3.90;;;;;;;;;;13032015;22;20240;-84
2021/05/07 14:51:16;;;;;;;5.33;3.47;;;;;;;;;;13032184;22;20174;-83
2021/05/07 14:56:18;;;;;;;7.17;3.80;;;;;;;;;;13035013;22;20691;-85
2021/05/07 15:01:23;;;;;;;6.10;3.60;;;;;;;;;;13030900;22;20591;-83
2021/05/07 15:06:27;;;;;;;5.03;3.20;;;;;;;;;;13035545;22;20262;-85
2021/05/07 15:11:29;;;;;;;4.67;2.70;;;;;;;;;;13013930;22;20261;-83
2021/05/07 15:16:32;;;;;;;4.17;2.40;;;;;;;;;;13032288;22;21178;-82
2021/05/07 15:21:34;;;;;;;4.97;2.33;;;;;;;;;;13012724;22;20635;-82
2021/05/07 15:26:37;;;;;;;3.63;2.20;;;;;;;;;;13034977;22;20536;-83
2021/05/07 15:31:39;;;;;;;4.33;2.10;;;;;;;;;;13031149;22;20194;-84
2021/05/07 15:36:43;;;;;;;4.60;2.20;;;;;;;;;;13012659;22;20881;-83
2021/05/07 15:41:45;;;;;;;4.03;2.20;;;;;;;;;;13032580;22;20173;-84
2021/05/07 15:46:48;;;;;;;4.43;2.47;;;;;;;;;;13030435;22;20206;-82
2021/05/07 15:51:50;;;;;;;7.80;2.80;;;;;;;;;;13034082;22;20182;-82
2021/05/07 15:56:52;;;;;;;5.47;2.70;;;;;;;;;;13013376;22;20255;-82
2021/05/07 16:01:54;;;;;;;5.07;2.70;;;;;;;;;;13007335;22;20229;-83
2021/05/07 16:06:56;;;;;;;4.67;2.60;;;;;;;;;;13035158;22;20197;-82
2021/05/07 16:11:58;;;;;;;4.30;2.20;;;;;;;;;;13031656;22;20721;-82
2021/05/07 16:17:04;;;;;;;5.97;2.50;;;;;;;;;;13030207;22;20185;-83
2021/05/07 16:22:07;;;;;;;5.13;2.30;;;;;;;;;;13011198;22;20173;-82
2021/05/07 16:27:09;;;;;;;4.20;2.30;;;;;;;;;;13010411;22;20845;-83
2021/05/07 16:32:15;;;;;;;4.70;2.33;;;;;;;;;;13029505;22;20506;-90
2021/05/07 16:37:21;;;;;;;6.93;2.60;;;;;;;;;;13036809;22;20209;-87
2021/05/07 16:42:25;;;;;;;4.83;2.27;;;;;;;;;;13035935;22;20170;-88
2021/05/07 16:47:28;;;;;;;4.70;2.60;;;;;;;;;;13021947;22;20212;-89
2021/05/07 16:52:31;;;;;;;3.90;2.60;;;;;;;;;;13036235;22;20227;-80
2021/05/07 16:57:33;;;;;;;4.90;2.63;;;;;;;;;;13050716;22;20667;-87
2021/05/07 17:02:39;;;;;;;4.50;3.00;;;;;;;;;;13064747;22;20505;-93
2021/05/07 17:07:45;;;;;;;7.27;3.20;;;;;;;;;;13077613;22;20190;-93
2021/05/07 17:12:51;;;;;;;6.73;3.50;;;;;;;;;;13052209;22;20178;-95
2021/05/07 17:18:06;;;;;;;4.43;3.33;;;;;;;;;;13108519;22;20403;-93
2021/05/07 17:23:18;;;;;;;6.03;3.33;;;;;;;;;;13098407;22;20203;-94
2021/05/07 17:28:42;;;;;;;5.60;3.23;;;;;;;;;;13053657;22;20209;-88
2021/05/07 17:33:46;;;;;;;6.67;3.30;;;;;;;;;;13036603;22;20174;-87
2021/05/07 17:38:48;;;;;;;7.55;3.00;;;;;;;;;;13040074;22;20948;-82
2021/05/07 17:43:51;;;;;;;4.90;2.73;;;;;;;;;;13035792;22;20434;-81
2021/05/07 17:48:56;;;;;;;4.80;3.20;;;;;;;;;;13016046;22;20205;-84
2021/05/07 17:54:01;;;;;;;8.27;3.77;;;;;;;;;;13038667;22;20173;-84
2021/05/07 17:59:03;;;;;;;8.23;3.63;;;;;;;;;;13041533;22;20256;-83
2021/05/07 18:04:33;;;;;;;4.97;2.60;;;;;;;;;;13065177;22;20193;-89
2021/05/07 18:09:36;;;;;;;10.70;2.60;;;;;;;;;;13026287;22;20259;-92
2021/05/07 18:14:42;;;;;;;4.50;2.73;;;;;;;;;;13069044;22;20174;-93
2021/05/07 18:19:49;;;;;;;3.77;2.30;;;;;;;;;;13074420;22;20236;-88
2021/05/07 18:24:55;;;;;;;7.60;4.33;;;;;;;;;;13067739;22;20169;-92
2021/05/07 18:29:57;;;;;;;7.07;2.80;;;;;;;;;;13060980;22;20201;-94
2021/05/07 18:35:01;;;;;;;8.17;2.37;;;;;;;;;;13061351;22;20185;-95
2021/05/07 18:40:07;;;;;;;4.10;2.47;;;;;;;;;;13067229;22;20174;-93
2021/05/07 18:45:10;;;;;;;5.40;2.27;;;;;;;;;;13046994;22;20177;-95
2021/05/07 18:50:16;;;;;;;5.47;2.40;;;;;;;;;;13060849;22;20201;-84
2021/05/07 18:55:24;;;;;;;5.60;2.57;;;;;;;;;;13041635;22;20180;-88
2021/05/07 19:00:27;;;;;;;4.90;2.60;;;;;;;;;;13036654;22;20181;-88
2021/05/07 19:05:29;;;;;;;6.07;2.60;;;;;;;;;;13044574;22;20677;-89
2021/05/07 19:10:34;;;;;;;5.17;2.70;;;;;;;;;;13042579;22;20188;-89
2021/05/07 19:15:40;;;;;;;5.67;2.80;;;;;;;;;;13032641;22;20180;-89
2021/05/07 19:20:43;;;;;;;6.67;2.80;;;;;;;;;;13038251;22;20231;-87
2021/05/07 19:25:47;;;;;;;6.53;3.20;;;;;;;;;;13017582;22;20177;-90
2021/05/07 19:30:53;;;;;;;5.30;3.17;;;;;;;;;;13045918;22;20166;-92
2021/05/07 19:36:01;;;;;;;5.50;3.60;;;;;;;;;;13040085;22;20507;-89
2021/05/07 19:41:04;;;;;;;7.40;3.80;;;;;;;;;;13035545;22;20619;-88
2021/05/07 20:38:56;;;;;;;7.03;4.37;;;;;;;;;;12896651;22;20214;-85
2021/05/07 20:43:59;;;;;;;6.70;4.30;;;;;;;;;;12911686;22;20950;-90
2021/05/07 20:49:03;;;;;;;7.17;4.30;;;;;;;;;;12912088;23;20246;-91
2021/05/07 20:54:08;;;;;;;10.33;4.47;;;;;;;;;;12914661;23;20175;-89
2021/05/07 20:59:10;;;;;;;9.73;4.93;;;;;;;;;;12915174;23;20205;-90
2021/05/07 21:04:13;;;;;;;8.53;4.70;;;;;;;;;;12912808;23;20813;-91
2021/05/07 21:09:18;;;;;;;9.13;5.27;;;;;;;;;;12917399;23;20663;-90
2021/05/07 21:14:21;;;;;;;8.13;4.73;;;;;;;;;;12915001;23;20686;-89
2021/05/07 21:19:23;;;;;;;8.13;4.20;;;;;;;;;;12916088;23;20628;-88
2021/05/07 21:24:29;;;;;;;5.77;4.23;;;;;;;;;;12914357;23;20175;-91
2021/05/07 21:29:31;;;;;;;9.37;4.80;;;;;;;;;;12915135;22;20198;-90
2021/05/07 21:34:33;;;;;;;9.43;4.50;;;;;;;;;;12914331;22;20652;-90
2021/05/07 21:39:36;;;;;;;8.53;4.80;;;;;;;;;;12918107;23;20206;-88
2021/05/07 21:44:39;;;;;;;9.57;4.97;;;;;;;;;;12916829;22;20195;-89
2021/05/07 21:49:43;;;;;;;11.63;5.50;;;;;;;;;;12919571;23;20666;-92
2021/05/07 21:54:46;;;;;;;8.77;5.37;;;;;;;;;;12916685;23;20194;-90
2021/05/07 21:59:54;;;;;;;8.90;5.23;;;;;;;;;;12912887;23;20763;-85
2021/05/07 22:04:57;;;;;;;8.90;5.53;;;;;;;;;;12908948;22;20177;-85
2021/05/07 22:10:01;;;;;;;7.77;5.10;;;;;;;;;;12914799;23;20235;-89
2021/05/07 22:15:05;;;;;;;10.47;5.33;;;;;;;;;;12910293;23;20175;-89
2021/05/07 22:20:08;;;;;;;10.60;5.40;;;;;;;;;;12912579;23;20172;-89
2021/05/07 22:25:13;;;;;;;8.53;5.43;;;;;;;;;;12891103;23;20179;-89
2021/05/07 22:30:16;;;;;;;7.53;4.87;;;;;;;;;;12912007;23;20644;-88
2021/05/07 22:35:19;;;;;;;12.33;6.00;;;;;;;;;;12914174;23;20179;-88
2021/05/07 22:40:24;;;;;;;9.47;6.00;;;;;;;;;;12963927;22;20193;-88
2021/05/07 22:45:28;;;;;;;10.37;6.10;;;;;;;;;;12979828;22;20247;-90
2021/05/07 22:50:31;;;;;;;11.20;6.40;;;;;;;;;;12985808;22;20202;-89
2021/05/07 22:55:34;;;;;;;10.13;6.10;;;;;;;;;;12986446;22;20182;-88
2021/05/07 23:00:38;;;;;;;8.33;6.13;;;;;;;;;;12980287;22;20174;-88
2021/05/07 23:05:40;;;;;;;10.57;5.77;;;;;;;;;;12981097;22;20170;-89
2021/05/07 23:10:43;;;;;;;10.70;5.90;;;;;;;;;;12984258;22;20220;-90
2021/05/07 23:15:45;;;;;;;9.50;5.43;;;;;;;;;;12984775;22;20178;-90
2021/05/07 23:20:47;;;;;;;9.13;5.33;;;;;;;;;;12985847;22;20198;-88
2021/05/07 23:25:55;;;;;;;9.60;5.27;;;;;;;;;;12987600;22;20233;-89
2021/05/07 23:30:59;;;;;;;9.93;5.00;;;;;;;;;;12957231;22;20803;-89
2021/05/07 23:36:02;;;;;;;8.43;5.50;;;;;;;;;;12986357;22;20851;-90
2021/05/07 23:41:09;;;;;;;8.00;4.80;;;;;;;;;;12985781;22;20203;-91
2021/05/07 23:46:12;;;;;;;8.00;5.00;;;;;;;;;;12984281;22;20229;-90
2021/05/07 23:51:15;;;;;;;8.23;5.27;;;;;;;;;;12982671;22;20182;-90
2021/05/07 23:56:19;;;;;;;7.20;4.93;;;;;;;;;;12981124;22;20178;-91
